Time;durP1;ratioP1;P1;durP2;ratioP2;P2;SDS_P1;SDS_P2;PMS_P1;PMS_P2;Temp;Humidity;BMP_temperature;BMP_pressure;BME280_temperature;BME280_humidity;BME280_pressure;Samples;Min_cycle;Max_cycle;Signal;HPM_P1;HPM_P2
2021/11/25 00:01:21;;;;;;;;;4.75;3.25;;;;;20.68;33.69;100766.38;5098244;27;46527;-56
2021/11/25 00:03:46;;;;;;;;;4.25;3.25;;;;;20.67;33.64;100762.03;5098364;27;45227;-54
2021/11/25 00:06:12;;;;;;;;;4.00;4.00;;;;;20.65;33.60;100760.44;5098271;27;45259;-54
2021/11/25 00:08:37;;;;;;;;;7.25;4.25;;;;;20.64;33.91;100767.50;5098380;27;45378;-51
2021/11/25 00:11:02;;;;;;;;;2.00;2.00;;;;;20.62;33.28;100774.66;5097853;27;45480;-53
2021/11/25 00:13:28;;;;;;;;;4.00;4.00;;;;;20.63;33.79;100773.72;5080139;27;45375;-58
2021/11/25 00:15:54;;;;;;;;;3.00;3.00;;;;;20.64;33.55;100764.00;5098189;27;45319;-56
2021/11/25 00:18:21;;;;;;;;;3.50;3.50;;;;;20.65;33.33;100769.22;5098504;27;45840;-58
2021/11/25 00:20:47;;;;;;;;;3.50;3.50;;;;;20.68;33.58;100765.53;5097970;27;45575;-57
2021/11/25 00:23:13;;;;;;;;;3.00;3.00;;;;;20.69;33.52;100768.06;5079750;27;45954;-55
2021/11/25 00:25:38;;;;;;;;;3.75;2.75;;;;;20.72;33.77;100767.06;5098118;27;45756;-58
2021/11/25 00:28:04;;;;;;;;;4.25;2.75;;;;;20.76;33.36;100762.50;5079783;27;45632;-59
2021/11/25 00:30:30;;;;;;;;;3.00;3.00;;;;;20.77;33.60;100761.56;5079692;27;45263;-59
2021/11/25 00:32:55;;;;;;;;;4.00;4.00;;;;;20.80;33.39;100753.47;5097966;27;45465;-57
2021/11/25 00:35:21;;;;;;;;;3.75;3.75;;;;;20.85;33.14;100756.69;5098038;27;45307;-55
2021/11/25 00:37:46;;;;;;;;;3.50;3.00;;;;;20.86;33.14;100745.22;5098275;27;45445;-54
2021/11/25 00:40:18;;;;;;;;;2.75;2.75;;;;;20.90;33.08;100749.38;5097852;27;46263;-59
2021/11/25 00:42:44;;;;;;;;;3.50;3.00;;;;;20.92;33.56;100747.50;5097936;27;45853;-58
2021/11/25 00:45:12;;;;;;;;;3.00;3.00;;;;;20.95;33.43;100743.81;5097936;27;45505;-56
2021/11/25 00:47:38;;;;;;;;;3.50;3.00;;;;;20.97;33.12;100748.09;5098011;27;45304;-55
2021/11/25 00:50:06;;;;;;;;;3.00;3.00;;;;;21.00;33.52;100745.25;5097589;27;46349;-59
2021/11/25 00:52:32;;;;;;;;;1.75;1.75;;;;;21.03;33.46;100744.25;5098024;27;45372;-58
2021/11/25 00:54:57;;;;;;;;;4.25;4.25;;;;;21.04;32.91;100729.28;5079724;27;45494;-58
2021/11/25 00:57:22;;;;;;;;;6.25;3.00;;;;;21.06;33.08;100724.75;5079641;27;45601;-58
2021/11/25 00:59:48;;;;;;;;;3.25;3.25;;;;;21.09;33.20;100732.50;5097516;27;45450;-57
2021/11/25 01:02:14;;;;;;;;;3.00;3.00;;;;;21.11;33.46;100728.81;5097450;27;45371;-59
2021/11/25 01:04:39;;;;;;;;;5.00;4.75;;;;;21.11;33.08;100726.19;5079290;27;45260;-57
2021/11/25 01:07:05;;;;;;;;;3.00;3.00;;;;;21.15;32.86;100726.84;5079119;27;45308;-57
2021/11/25 01:09:30;;;;;;;;;5.00;3.50;;;;;21.16;33.05;100728.53;5079207;27;46386;-58
2021/11/25 01:12:01;;;;;;;;;4.00;3.50;;;;;21.18;32.93;100734.56;5097408;27;45300;-57
2021/11/25 01:14:33;;;;;;;;;3.00;3.00;;;;;21.19;33.30;100733.63;5097290;27;45451;-58
2021/11/25 01:16:58;;;;;;;;;4.00;3.00;;;;;21.21;33.17;100737.03;5097856;27;45438;-58
2021/11/25 01:19:24;;;;;;;;;3.25;3.25;;;;;21.24;32.81;100738.63;5096925;27;46393;-58
2021/11/25 01:21:50;;;;;;;;;5.00;5.00;;;;;21.23;33.24;100735.13;5096514;27;45395;-58
2021/11/25 01:24:16;;;;;;;;;3.50;3.25;;;;;21.26;33.27;100734.97;5097083;27;45326;-56
2021/11/25 01:26:41;;;;;;;;;3.25;3.25;;;;;21.28;32.89;100741.00;5097382;27;45342;-58
2021/11/25 01:29:07;;;;;;;;;4.50;3.75;;;;;21.30;32.82;100731.22;5096891;27;45472;-57
2021/11/25 01:31:33;;;;;;;;;4.50;4.00;;;;;21.31;32.99;100743.44;5097336;27;45261;-57
2021/11/25 01:33:59;;;;;;;;;4.00;4.00;;;;;21.33;33.13;100734.59;5097230;27;45308;-56
2021/11/25 01:36:24;;;;;;;;;4.00;4.00;;;;;21.35;33.06;100745.88;5097298;27;45958;-56
2021/11/25 01:38:50;;;;;;;;;4.00;3.00;;;;;21.35;32.96;100749.38;5096778;27;45258;-56
2021/11/25 01:41:17;;;;;;;;;5.00;3.00;;;;;21.36;32.93;100744.94;5096652;27;45509;-55
2021/11/25 01:43:43;;;;;;;;;3.00;1.75;;;;;21.38;32.77;100743.94;5097157;27;45616;-52
2021/11/25 01:46:17;;;;;;;;;2.75;2.75;;;;;21.39;32.62;100745.59;5097228;27;45520;-56
2021/11/25 01:48:47;;;;;;;;;7.00;4.00;;;;;21.41;32.85;100733.19;5096737;27;46495;-53
2021/11/25 01:51:12;;;;;;;;;3.00;3.00;;;;;21.39;32.79;100726.31;5096735;27;45256;-55
2021/11/25 01:53:38;;;;;;;;;3.00;3.00;;;;;21.42;32.99;100737.50;5096964;27;45238;-58
2021/11/25 01:56:06;;;;;;;;;1.00;1.00;;;;;21.45;32.57;100741.75;5079068;27;45648;-58
2021/11/25 01:58:31;;;;;;;;;3.25;3.25;;;;;21.46;32.63;100735.53;5096927;27;45490;-55
2021/11/25 02:00:58;;;;;;;;;4.00;2.25;;;;;21.46;32.50;100732.91;5096650;27;45351;-56
2021/11/25 02:03:24;;;;;;;;;3.75;3.75;;;;;21.47;32.62;100731.97;5096895;27;45426;-56
2021/11/25 02:05:50;;;;;;;;;3.00;3.00;;;;;21.49;32.82;100731.88;5096615;27;45407;-56
2021/11/25 02:08:15;;;;;;;;;3.00;3.00;;;;;21.47;32.49;100724.03;5096591;27;45378;-54
2021/11/25 02:10:45;;;;;;;;;4.50;2.25;;;;;21.50;32.78;100731.78;5096460;27;45504;-54
2021/11/25 02:13:11;;;;;;;;;2.00;2.00;;;;;21.52;32.60;100739.59;5096701;27;45381;-55
2021/11/25 02:15:37;;;;;;;;;3.25;3.25;;;;;21.52;32.25;100731.66;5096823;27;45632;-55
2021/11/25 02:18:12;;;;;;;;;3.75;3.75;;;;;21.54;32.73;100727.16;5096388;27;46519;-56
2021/11/25 02:20:40;;;;;;;;;4.00;3.00;;;;;21.54;32.59;100735.94;5096493;27;45681;-56
2021/11/25 02:23:08;;;;;;;;;3.00;3.00;;;;;21.54;32.52;100728.03;5096728;27;45443;-55
2021/11/25 02:25:34;;;;;;;;;3.75;3.00;;;;;21.53;32.75;100728.97;5079010;27;45604;-55
2021/11/25 02:28:00;;;;;;;;;4.00;3.00;;;;;21.54;32.78;100722.75;5096100;27;46389;-55
2021/11/25 02:30:26;;;;;;;;;3.00;3.00;;;;;21.53;32.43;100715.78;5096310;27;45183;-54
2021/11/25 02:32:52;;;;;;;;;2.25;2.25;;;;;21.53;32.47;100720.19;5096441;27;45835;-57
2021/11/25 02:35:22;;;;;;;;;3.50;3.00;;;;;21.52;32.25;100719.34;5099809;27;45623;-56
2021/11/25 02:37:50;;;;;;;;;3.00;3.00;;;;;21.51;32.35;100712.38;5099669;27;46259;-56
2021/11/25 02:40:37;;;;;;;;;3.00;3.00;;;;;21.53;32.54;100714.91;5081231;27;45787;-56
2021/11/25 02:43:10;;;;;;;;;5.00;2.75;;;;;21.51;32.54;100715.03;5100067;27;45448;-57
2021/11/25 02:45:46;;;;;;;;;3.50;3.50;;;;;21.50;32.26;100721.22;5100026;27;45405;-54
2021/11/25 02:48:13;;;;;;;;;2.00;2.00;;;;;21.47;32.08;100714.38;5099580;27;46514;-55
2021/11/25 02:50:38;;;;;;;;;2.75;2.00;;;;;21.46;32.48;100710.03;5099467;27;45984;-56
2021/11/25 02:53:04;;;;;;;;;2.25;2.25;;;;;21.47;32.40;100717.00;5081483;27;45418;-55
2021/11/25 02:55:29;;;;;;;;;2.50;2.50;;;;;21.47;32.48;100713.50;5099606;27;45319;-54
2021/11/25 02:57:55;;;;;;;;;3.00;3.00;;;;;21.46;32.22;100709.16;5099253;27;46531;-54
2021/11/25 03:00:20;;;;;;;;;2.50;2.50;;;;;21.46;32.07;100709.16;5099394;27;45390;-55
2021/11/25 03:02:46;;;;;;;;;4.00;2.00;;;;;21.40;32.07;100705.13;5099566;27;45508;-56
2021/11/25 03:05:11;;;;;;;;;2.50;2.25;;;;;21.43;32.38;100714.66;5099484;27;45534;-54
2021/11/25 03:07:37;;;;;;;;;4.00;2.75;;;;;21.41;32.46;100709.44;5099406;27;45442;-56
2021/11/25 03:10:04;;;;;;;;;1.00;1.00;;;;;21.40;32.00;100706.91;5099080;27;45188;-51
2021/11/25 03:12:30;;;;;;;;;3.25;3.25;;;;;21.40;32.67;100715.66;5099308;27;45237;-56
2021/11/25 03:14:55;;;;;;;;;2.50;2.00;;;;;21.38;32.59;100712.28;5099448;27;45344;-53
2021/11/25 03:17:20;;;;;;;;;3.00;3.00;;;;;21.37;32.15;100704.47;5099052;27;45352;-56
2021/11/25 03:19:46;;;;;;;;;2.25;2.25;;;;;21.37;32.39;100709.72;5099116;27;45312;-55
2021/11/25 03:22:11;;;;;;;;;3.00;3.00;;;;;21.32;32.39;100694.19;5099062;27;45284;-55
2021/11/25 03:24:37;;;;;;;;;3.00;3.00;;;;;21.33;32.45;100697.69;5081306;27;45193;-55
2021/11/25 03:27:02;;;;;;;;;2.00;2.00;;;;;21.29;32.67;100686.47;5098794;27;46040;-55
2021/11/25 03:29:28;;;;;;;;;3.00;3.00;;;;;21.29;32.02;100689.09;5098827;27;45362;-55
2021/11/25 03:31:53;;;;;;;;;5.00;4.00;;;;;21.26;32.49;100695.41;5098989;27;45445;-54
2021/11/25 03:34:19;;;;;;;;;2.50;2.50;;;;;21.24;32.52;100699.94;5099049;27;45572;-53
2021/11/25 03:36:44;;;;;;;;;2.25;1.75;;;;;21.25;32.19;100698.16;5098886;27;46327;-56
2021/11/25 03:39:09;;;;;;;;;2.50;2.50;;;;;21.21;32.46;100689.59;5099122;27;45441;-53
2021/11/25 03:41:35;;;;;;;;;2.50;2.50;;;;;21.17;32.72;100682.81;5098793;27;45367;-54
2021/11/25 03:44:00;;;;;;;;;3.00;3.00;;;;;21.17;32.99;100693.34;5099185;27;46092;-53
2021/11/25 03:46:26;;;;;;;;;2.75;2.75;;;;;21.16;32.42;100694.28;5098222;27;45486;-55
2021/11/25 03:48:51;;;;;;;;;4.50;3.50;;;;;21.13;32.37;100697.09;5098116;27;45542;-51
2021/11/25 03:51:17;;;;;;;;;3.00;3.00;;;;;21.10;32.49;100692.03;5097430;27;45429;-54
2021/11/25 03:53:45;;;;;;;;;4.00;2.75;;;;;21.07;32.70;100689.56;5098916;27;45632;-55
2021/11/25 03:56:11;;;;;;;;;2.00;2.00;;;;;21.07;32.75;100692.22;5098758;27;47164;-54
2021/11/25 03:58:37;;;;;;;;;2.25;2.25;;;;;21.03;32.58;100686.28;5098857;27;45390;-54
2021/11/25 04:01:03;;;;;;;;;2.00;2.00;;;;;21.02;32.48;100689.84;5098590;27;45366;-54
2021/11/25 04:03:29;;;;;;;;;2.25;2.25;;;;;21.00;32.38;100692.56;5098813;27;45409;-55
2021/11/25 04:05:54;;;;;;;;;0.75;0.75;;;;;20.99;32.65;100692.66;5098158;27;46172;-54
2021/11/25 04:08:19;;;;;;;;;3.00;3.00;;;;;20.97;32.91;100687.50;5098275;27;45463;-53
2021/11/25 04:10:45;;;;;;;;;4.25;3.25;;;;;20.97;32.54;100692.75;5080109;27;45312;-54
2021/11/25 04:13:11;;;;;;;;;3.00;3.00;;;;;20.94;32.62;100686.84;5080474;27;45445;-53
2021/11/25 04:15:36;;;;;;;;;2.50;2.50;;;;;20.89;32.69;100689.72;5098231;27;45594;-54
2021/11/25 04:18:02;;;;;;;;;2.75;2.75;;;;;20.93;32.92;100685.97;5098163;27;45478;-55
2021/11/25 04:20:28;;;;;;;;;2.00;2.00;;;;;20.94;32.58;100682.41;5098266;27;45388;-54
2021/11/25 04:22:54;;;;;;;;;2.00;2.00;;;;;20.95;32.76;100692.00;5098428;27;45533;-53
2021/11/25 04:25:20;;;;;;;;;3.00;3.00;;;;;20.97;32.77;100691.91;5097848;27;46217;-54
2021/11/25 04:27:45;;;;;;;;;5.25;3.50;;;;;20.99;32.51;100685.63;5097949;27;45250;-54
2021/11/25 04:30:24;;;;;;;;;3.00;3.00;;;;;21.03;32.72;100695.94;5098279;27;45320;-53
2021/11/25 04:35:35;;;;;;;;;5.50;3.00;;;;;21.08;32.29;100683.38;5097904;27;45335;-54
2021/11/25 04:38:10;;;;;;;;;5.50;3.25;;;;;21.12;32.37;100690.13;5097744;27;45328;-55
2021/11/25 04:40:49;;;;;;;;;2.75;2.75;;;;;21.14;32.34;100686.47;5098015;27;45318;-55
2021/11/25 04:43:16;;;;;;;;;4.50;3.25;;;;;21.18;32.29;100695.03;5097947;27;45287;-53
2021/11/25 04:45:43;;;;;;;;;2.00;2.00;;;;;21.22;32.53;100700.97;5097862;27;45378;-54
2021/11/25 04:48:10;;;;;;;;;3.50;3.50;;;;;21.23;32.42;100698.22;5097918;27;45361;-54
2021/11/25 04:50:36;;;;;;;;;3.00;3.00;;;;;21.26;32.57;100705.97;5097845;27;45323;-53
2021/11/25 04:53:02;;;;;;;;;4.00;2.75;;;;;21.28;32.23;100695.31;5097789;27;45409;-53
2021/11/25 04:55:28;;;;;;;;;3.50;3.25;;;;;21.31;32.43;100685.47;5079149;27;48134;-55
2021/11/25 04:57:53;;;;;;;;;4.25;4.25;;;;;21.33;32.32;100687.16;5096413;27;45288;-55
2021/11/25 05:00:20;;;;;;;;;5.00;3.00;;;;;21.36;32.34;100694.84;5097657;27;45653;-55
2021/11/25 05:02:46;;;;;;;;;3.00;3.00;;;;;21.37;32.34;100699.19;5097691;27;45727;-53
2021/11/25 05:05:12;;;;;;;;;5.25;4.25;;;;;21.40;32.53;100693.72;5097704;27;45648;-57
2021/11/25 05:07:38;;;;;;;;;4.00;4.00;;;;;21.39;32.31;100682.31;5096973;27;45917;-56
2021/11/25 05:10:05;;;;;;;;;2.50;2.25;;;;;21.42;32.15;100689.22;5097432;27;45279;-56
2021/11/25 05:12:31;;;;;;;;;4.75;4.00;;;;;21.44;32.24;100692.63;5097645;27;45466;-54
2021/11/25 05:14:56;;;;;;;;;4.00;4.00;;;;;21.45;32.53;100695.16;5097157;27;45904;-52
2021/11/25 05:17:22;;;;;;;;;3.50;2.00;;;;;21.46;32.49;100691.56;5097031;27;45433;-55
2021/11/25 05:19:48;;;;;;;;;5.00;5.00;;;;;21.47;32.52;100679.22;5097362;27;45200;-57
2021/11/25 05:22:13;;;;;;;;;4.00;4.00;;;;;21.51;32.53;100682.50;5097701;27;45598;-54
2021/11/25 05:24:39;;;;;;;;;7.50;5.00;;;;;21.51;32.26;100678.09;5097080;27;46302;-55
2021/11/25 05:27:04;;;;;;;;;4.50;4.00;;;;;21.53;32.25;100673.59;5096981;27;45236;-56
2021/11/25 05:29:30;;;;;;;;;5.00;5.00;;;;;21.55;32.49;100681.38;5097202;27;45220;-56
2021/11/25 05:31:55;;;;;;;;;4.00;4.00;;;;;21.57;32.36;100679.50;5097185;27;45548;-55
2021/11/25 05:34:21;;;;;;;;;5.00;5.00;;;;;21.57;32.49;100685.63;5096891;27;46576;-54
2021/11/25 05:36:46;;;;;;;;;5.50;5.50;;;;;21.59;32.46;100681.13;5097204;27;45338;-53
2021/11/25 05:39:12;;;;;;;;;6.50;6.25;;;;;21.58;32.10;100682.03;5078997;27;45416;-55
2021/11/25 05:41:39;;;;;;;;;5.50;3.00;;;;;21.60;31.98;100679.34;5097194;27;45318;-56
2021/11/25 05:44:06;;;;;;;;;5.50;5.50;;;;;21.62;32.44;100685.38;5096871;27;46699;-55
2021/11/25 05:46:32;;;;;;;;;6.00;5.25;;;;;21.62;32.22;100688.84;5096845;27;45955;-56
2021/11/25 05:48:57;;;;;;;;;6.00;6.00;;;;;21.65;32.02;100692.25;5096926;27;45390;-55
2021/11/25 05:51:22;;;;;;;;;7.25;6.00;;;;;21.66;32.10;100693.97;5097055;27;45295;-55
2021/11/25 05:53:48;;;;;;;;;5.00;4.50;;;;;21.65;31.89;100703.63;5096745;27;45308;-55
2021/11/25 05:56:14;;;;;;;;;7.00;5.00;;;;;21.65;32.20;100697.53;5096913;27;45284;-53
2021/11/25 05:58:39;;;;;;;;;9.25;8.75;;;;;21.63;32.11;100705.53;5096703;27;45242;-55
2021/11/25 06:01:04;;;;;;;;;7.00;7.00;;;;;21.64;32.35;100711.66;5096784;27;45443;-56
2021/11/25 06:03:30;;;;;;;;;7.25;6.50;;;;;21.64;32.20;100719.56;5096502;27;45339;-55
2021/11/25 06:05:55;;;;;;;;;9.50;7.25;;;;;21.61;32.15;100715.31;5096332;27;45406;-56
2021/11/25 06:08:21;;;;;;;;;6.00;5.00;;;;;21.63;32.32;100726.63;5097029;27;45354;-54
2021/11/25 06:10:46;;;;;;;;;10.00;7.00;;;;;21.62;32.04;100738.09;5100792;27;45312;-55
2021/11/25 06:13:12;;;;;;;;;9.25;7.00;;;;;21.61;31.85;100739.91;5100012;27;45262;-57
2021/11/25 06:15:37;;;;;;;;;10.00;8.50;;;;;21.60;32.31;100730.31;5099971;27;45242;-54
2021/11/25 06:18:02;;;;;;;;;7.25;7.25;;;;;21.60;32.27;100718.91;5100257;27;45487;-55
2021/11/25 06:20:28;;;;;;;;;6.75;6.00;;;;;21.59;32.04;100727.78;5081956;27;45395;-53
2021/11/25 06:22:54;;;;;;;;;6.25;6.25;;;;;21.59;32.42;100735.69;5099880;27;46292;-54
2021/11/25 06:25:21;;;;;;;;;8.25;8.00;;;;;21.55;32.34;100729.69;5081813;27;45617;-54
2021/11/25 06:27:47;;;;;;;;;8.75;7.75;;;;;21.56;32.18;100726.13;5100316;27;45300;-54
2021/11/25 06:30:14;;;;;;;;;8.50;7.00;;;;;21.53;32.38;100731.59;5081701;27;45279;-56
2021/11/25 06:32:41;;;;;;;;;7.00;6.50;;;;;21.50;32.19;100723.88;5099859;27;45667;-54
2021/11/25 06:35:10;;;;;;;;;9.00;7.00;;;;;21.49;32.07;100723.97;5099827;27;45714;-54
2021/11/25 06:37:37;;;;;;;;;7.50;7.50;;;;;21.49;32.07;100735.34;5099900;27;45440;-58
2021/11/25 06:40:02;;;;;;;;;8.25;8.25;;;;;21.47;32.02;100729.31;5099981;27;45352;-56
2021/11/25 06:42:28;;;;;;;;;8.50;8.50;;;;;21.46;31.91;100725.84;5099592;27;46515;-55
2021/11/25 06:44:53;;;;;;;;;6.75;6.75;;;;;21.46;31.85;100732.91;5099553;27;45297;-56
2021/11/25 06:47:19;;;;;;;;;9.75;9.50;;;;;21.42;31.82;100728.78;5099892;27;45219;-56
2021/11/25 06:49:44;;;;;;;;;8.75;7.75;;;;;21.40;31.83;100726.22;5081390;27;45660;-56
2021/11/25 06:52:09;;;;;;;;;9.50;9.50;;;;;21.39;31.88;100728.94;5099292;27;45383;-54
2021/11/25 06:54:35;;;;;;;;;7.75;6.75;;;;;21.38;31.92;100725.47;5099488;27;45442;-55
2021/11/25 06:57:00;;;;;;;;;9.00;9.00;;;;;21.35;32.34;100730.06;5099658;27;45304;-55
2021/11/25 06:59:25;;;;;;;;;7.25;7.25;;;;;21.34;32.52;100738.91;5099876;27;45209;-58
2021/11/25 07:01:51;;;;;;;;;9.50;8.50;;;;;21.32;32.43;100744.28;5099435;27;46148;-56
2021/11/25 07:04:17;;;;;;;;;8.00;7.25;;;;;21.29;32.27;100750.59;5099767;27;45218;-57
2021/11/25 07:06:44;;;;;;;;;10.25;7.25;;;;;21.26;32.50;100748.13;5099126;27;45242;-54
2021/11/25 07:09:10;;;;;;;;;7.25;7.25;;;;;21.23;32.18;100756.22;5099416;27;45366;-53
2021/11/25 07:11:35;;;;;;;;;10.75;8.25;;;;;21.21;32.72;100759.91;5098969;27;45618;-55
2021/11/25 07:14:01;;;;;;;;;11.00;8.00;;;;;21.15;32.47;100769.00;5099051;27;45332;-55
2021/11/25 07:16:27;;;;;;;;;10.75;8.00;;;;;21.17;32.38;100780.31;5099288;27;45423;-57
2021/11/25 07:18:52;;;;;;;;;9.25;8.75;;;;;21.17;32.74;100783.78;5099252;27;45414;-57
2021/11/25 07:21:17;;;;;;;;;9.00;9.00;;;;;21.15;32.43;100777.78;5098308;27;46302;-56
2021/11/25 07:23:43;;;;;;;;;11.50;9.25;;;;;21.12;32.18;100766.53;5099013;27;45323;-57
2021/11/25 07:26:08;;;;;;;;;10.25;10.25;;;;;21.09;32.41;100766.75;5080675;27;45597;-56
2021/11/25 07:28:35;;;;;;;;;9.50;9.50;;;;;21.09;32.42;100779.94;5099051;27;45323;-57
2021/11/25 07:31:00;;;;;;;;;12.50;10.25;;;;;21.06;32.54;100777.47;5080635;27;45715;-57
2021/11/25 07:33:26;;;;;;;;;7.00;7.00;;;;;21.05;32.19;100787.16;5098837;27;45236;-59
2021/11/25 07:35:51;;;;;;;;;8.00;7.25;;;;;21.02;32.19;100789.97;5099235;27;45293;-59
2021/11/25 07:38:17;;;;;;;;;8.00;8.00;;;;;21.03;32.02;100796.06;5099243;27;45246;-58
2021/11/25 07:40:44;;;;;;;;;11.50;10.00;;;;;21.00;32.48;100807.66;5098791;27;45399;-59
2021/11/25 07:43:11;;;;;;;;;8.00;7.25;;;;;20.98;32.61;100805.13;5098693;27;45860;-59
2021/11/25 07:45:36;;;;;;;;;16.25;11.25;;;;;21.00;32.27;100815.56;5098741;27;45338;-58
2021/11/25 07:48:02;;;;;;;;;10.75;10.00;;;;;20.99;32.13;100817.38;5098898;27;45457;-59
2021/11/25 07:50:30;;;;;;;;;12.00;10.75;;;;;21.02;32.65;100821.59;5098593;27;46461;-60
2021/11/25 07:52:57;;;;;;;;;11.50;9.50;;;;;21.06;32.19;100823.09;5080344;27;46146;-58
2021/11/25 07:55:24;;;;;;;;;12.00;10.50;;;;;21.05;32.57;100816.16;5098955;27;45305;-59
2021/11/25 07:57:50;;;;;;;;;9.00;8.25;;;;;21.09;32.67;100816.81;5099117;27;45294;-60
2021/11/25 08:00:16;;;;;;;;;9.50;8.50;;;;;21.14;32.26;100825.28;5080201;27;46196;-59
2021/11/25 08:02:42;;;;;;;;;9.50;8.00;;;;;21.16;32.17;100826.06;5098396;27;45909;-59
2021/11/25 08:05:09;;;;;;;;;9.50;9.00;;;;;21.19;32.52;100827.66;5098539;27;45391;-59
2021/11/25 08:07:37;;;;;;;;;11.50;9.75;;;;;21.25;32.22;100828.16;5098403;27;45300;-58
2021/11/25 08:10:04;;;;;;;;;12.25;11.50;;;;;21.27;32.16;100836.00;5098142;27;47291;-59
2021/11/25 08:12:29;;;;;;;;;12.00;11.75;;;;;21.25;32.32;100846.59;5098132;27;45288;-59
2021/11/25 08:14:54;;;;;;;;;8.25;8.00;;;;;21.34;32.29;100847.00;5098303;27;45256;-58
2021/11/25 08:17:20;;;;;;;;;10.50;9.75;;;;;21.36;32.34;100846.00;5098354;27;45514;-59
2021/11/25 08:19:45;;;;;;;;;11.25;8.50;;;;;21.40;32.13;100849.28;5079578;27;48548;-60
2021/11/25 08:22:13;;;;;;;;;8.75;8.75;;;;;21.41;31.98;100845.72;5097929;27;45355;-59
2021/11/25 08:24:38;;;;;;;;;10.00;8.00;;;;;21.43;31.84;100847.31;5098099;27;45222;-58
2021/11/25 08:27:04;;;;;;;;;8.50;6.00;;;;;21.44;32.30;100848.19;5079851;27;45280;-58
2021/11/25 08:29:29;;;;;;;;;12.50;8.00;;;;;21.48;31.81;100854.94;5097704;27;46207;-58
2021/11/25 08:31:55;;;;;;;;;11.00;9.25;;;;;21.50;32.01;100860.16;5097980;27;45308;-58
2021/11/25 08:34:20;;;;;;;;;11.50;10.00;;;;;21.51;31.85;100860.06;5098280;27;45444;-55
2021/11/25 08:36:46;;;;;;;;;10.50;9.25;;;;;21.53;32.04;100855.53;5097316;27;45299;-55
2021/11/25 08:39:11;;;;;;;;;9.00;7.75;;;;;21.53;32.11;100857.31;5096355;27;47018;-55
2021/11/25 08:41:37;;;;;;;;;10.25;8.75;;;;;21.55;31.94;100858.91;5097664;27;45401;-56
2021/11/25 08:44:03;;;;;;;;;11.75;8.75;;;;;21.59;31.95;100863.09;5097956;27;45259;-55
2021/11/25 08:46:28;;;;;;;;;8.00;8.00;;;;;21.60;32.02;100854.25;5097973;27;45524;-56
2021/11/25 08:48:54;;;;;;;;;12.00;10.00;;;;;21.61;32.20;100861.22;5079284;27;47573;-55
2021/11/25 08:51:19;;;;;;;;;9.00;8.00;;;;;21.64;31.82;100856.72;5097451;27;45438;-56
2021/11/25 08:53:45;;;;;;;;;10.00;10.00;;;;;21.62;32.04;100848.88;5097807;27;45338;-57
2021/11/25 08:56:10;;;;;;;;;11.75;9.25;;;;;21.67;31.83;100859.16;5097773;27;45390;-54
2021/11/25 08:58:37;;;;;;;;;11.75;9.50;;;;;21.71;31.85;100860.69;5097357;27;45383;-54
2021/11/25 09:01:03;;;;;;;;;10.00;8.75;;;;;21.71;31.78;100839.56;5078718;27;45770;-56
2021/11/25 09:03:30;;;;;;;;;8.00;8.00;;;;;21.72;31.67;100846.56;5097182;27;45208;-57
2021/11/25 09:05:59;;;;;;;;;10.00;9.75;;;;;21.75;31.82;100851.66;5097866;27;45609;-57
2021/11/25 09:08:25;;;;;;;;;7.50;6.25;;;;;21.74;32.11;100860.50;5097599;27;45558;-56
2021/11/25 09:10:51;;;;;;;;;9.50;9.50;;;;;21.75;31.66;100844.56;5097282;27;45317;-56
2021/11/25 09:13:17;;;;;;;;;10.25;8.75;;;;;21.77;31.66;100839.22;5097365;27;45384;-58
2021/11/25 09:15:43;;;;;;;;;9.75;8.75;;;;;21.80;31.81;100848.72;5097725;27;45455;-60
2021/11/25 09:18:10;;;;;;;;;8.25;7.25;;;;;21.81;31.88;100839.88;5078970;27;47202;-56
2021/11/25 09:20:39;;;;;;;;;7.25;6.50;;;;;21.82;31.62;100844.22;5097098;27;45796;-58
2021/11/25 09:23:12;;;;;;;;;9.00;9.00;;;;;21.80;31.96;100828.47;5097313;27;45379;-56
2021/11/25 09:25:44;;;;;;;;;11.75;10.75;;;;;21.79;32.07;100839.94;5097099;27;45472;-56
2021/11/25 09:28:15;;;;;;;;;14.00;11.00;;;;;21.74;31.84;100829.69;5078620;27;46837;-57
2021/11/25 09:30:42;;;;;;;;;12.25;12.25;;;;;21.76;31.83;100834.88;5097141;27;45330;-55
2021/11/25 09:33:09;;;;;;;;;15.50;12.50;;;;;21.71;31.69;100835.16;5097112;27;45265;-56
2021/11/25 09:35:35;;;;;;;;;14.25;12.00;;;;;21.70;31.59;100827.31;5097178;27;45408;-55
2021/11/25 09:38:00;;;;;;;;;13.00;12.50;;;;;21.69;31.49;100830.91;5096687;27;46367;-55
2021/11/25 09:40:27;;;;;;;;;12.75;12.25;;;;;21.67;31.89;100828.38;5097102;27;45235;-53
2021/11/25 09:42:59;;;;;;;;;15.25;10.00;;;;;21.65;31.94;100829.41;5078817;27;45645;-54
2021/11/25 09:45:26;;;;;;;;;16.50;12.75;;;;;21.61;31.70;100834.84;5101216;27;45166;-52
2021/11/25 09:47:55;;;;;;;;;14.75;13.25;;;;;21.61;31.84;100824.31;5100378;27;45634;-57
2021/11/25 09:50:23;;;;;;;;;12.25;12.25;;;;;21.60;31.62;100824.41;5100279;27;45791;-50
2021/11/25 09:52:51;;;;;;;;;12.00;10.00;;;;;21.59;31.96;100833.25;5100589;27;45381;-48
2021/11/25 09:55:17;;;;;;;;;13.00;12.00;;;;;21.56;31.78;100834.25;5100630;27;45211;-46
2021/11/25 09:57:42;;;;;;;;;12.75;9.00;;;;;21.54;31.81;100836.16;5100186;27;46376;-53
2021/11/25 10:00:09;;;;;;;;;10.00;9.00;;;;;21.52;31.67;100824.84;5100206;27;45232;-48
2021/11/25 10:02:35;;;;;;;;;13.00;10.75;;;;;21.55;31.85;100844.91;5100417;27;45347;-54
2021/11/25 10:05:01;;;;;;;;;12.00;9.75;;;;;21.53;32.28;100841.50;5100194;27;45523;-51
2021/11/25 10:07:33;;;;;;;;;15.50;11.25;;;;;21.52;32.04;100840.66;5100234;27;45509;-54
2021/11/25 10:10:37;;;;;;;;;10.75;8.00;;;;;21.52;32.00;100851.22;5100408;27;45865;-54
2021/11/25 10:13:14;;;;;;;;;13.00;9.25;;;;;21.51;31.96;100849.50;5099617;27;45319;-54
2021/11/25 10:15:41;;;;;;;;;9.00;9.00;;;;;21.50;32.18;100853.06;5100287;27;45466;-52
2021/11/25 10:18:12;;;;;;;;;12.50;10.00;;;;;21.49;31.80;100846.09;5099985;27;46303;-50
2021/11/25 10:20:44;;;;;;;;;11.00;9.50;;;;;21.48;32.19;100844.41;5100000;27;45248;-50
2021/11/25 10:23:21;;;;;;;;;13.75;10.75;;;;;21.49;32.00;100842.63;5100167;27;45322;-50
2021/11/25 10:25:57;;;;;;;;;11.00;10.25;;;;;21.47;31.97;100834.78;5100156;27;45209;-54
2021/11/25 10:28:39;;;;;;;;;12.00;9.75;;;;;21.45;32.16;100837.53;5099910;27;45343;-54
2021/11/25 10:31:06;;;;;;;;;9.75;8.50;;;;;21.43;32.04;100842.03;5099731;27;45353;-59
2021/11/25 10:33:56;;;;;;;;;15.00;10.50;;;;;21.41;32.55;100836.00;5100120;27;45367;-51
2021/11/25 10:41:53;;;;;;;;;12.00;12.00;;;;;21.33;32.02;100834.78;5099642;27;45859;-48
2021/11/25 10:44:22;;;;;;;;;11.00;10.75;;;;;21.29;32.34;100834.97;5099846;27;45220;-51
2021/11/25 10:46:55;;;;;;;;;13.25;11.00;;;;;21.28;32.18;100832.38;5099939;27;45417;-53
2021/11/25 10:49:49;;;;;;;;;10.50;10.50;;;;;21.25;32.23;100829.94;5081001;27;45504;-52
2021/11/25 10:52:31;;;;;;;;;13.50;8.50;;;;;21.21;32.29;100829.28;5099525;27;45916;-48
2021/11/25 10:55:08;;;;;;;;;11.00;11.00;;;;;21.23;32.44;100832.66;5098258;27;45303;-48
2021/11/25 10:57:56;;;;;;;;;11.75;9.50;;;;;21.21;32.29;100816.13;5099726;27;45300;-49
2021/11/25 11:00:41;;;;;;;;;10.25;10.25;;;;;21.21;32.38;100817.88;5099294;27;47496;-48
2021/11/25 11:03:15;;;;;;;;;9.00;9.00;;;;;21.19;32.48;100810.06;5099357;27;45481;-48
2021/11/25 11:06:01;;;;;;;;;10.75;10.00;;;;;21.19;32.24;100817.13;5099334;27;45507;-51
2021/11/25 11:08:31;;;;;;;;;12.50;9.75;;;;;21.17;32.60;100811.94;5099640;27;45292;-51
2021/11/25 11:10:59;;;;;;;;;8.50;8.50;;;;;21.16;32.72;100813.75;5080747;27;47321;-53
2021/11/25 11:21:08;;;;;;;;;10.00;9.50;;;;;21.11;32.30;100809.69;5098981;27;45289;-49
2021/11/25 11:23:34;;;;;;;;;9.25;9.00;;;;;21.10;32.72;100807.97;5099405;27;45655;-48
2021/11/25 11:26:00;;;;;;;;;16.00;12.00;;;;;21.07;32.48;100808.16;5099386;27;45262;-53
2021/11/25 11:28:27;;;;;;;;;12.25;10.75;;;;;21.05;32.56;100810.03;5099280;27;45211;-51
2021/11/25 11:30:53;;;;;;;;;16.25;11.50;;;;;21.04;32.83;100814.47;5098816;27;45683;-48
2021/11/25 11:33:18;;;;;;;;;13.50;11.00;;;;;21.04;32.71;100818.88;5098794;27;45391;-51
2021/11/25 11:35:44;;;;;;;;;17.25;11.50;;;;;21.02;32.97;100813.69;5098894;27;45392;-50
2021/11/25 11:38:13;;;;;;;;;15.00;12.00;;;;;20.98;32.86;100812.16;5099078;27;45429;-55